Torrey, UT (84775)

2:27 AM MDT on November 01, 2014 (GMT -0600)
Spruce Way | Change Station
CLOSE
Current Station
Personal Weather Station
Location: Koosharem, UT
Elevation: 8945 ft
Nearby Weather Stations
Active Advisory: Winter Weather Advisory Active Notice: Record Report

Elev 8945 ft 38.54 °N, 111.73 °W | Updated 7 seconds ago

Partly Cloudy
Partly Cloudy
42.2 °F
Feels Like 42 °F
N
1.1
Wind Variable Wind from SSW
Gusts 1.1 mph

Today
High -- | Low -- °F
--% Chance of Precip.
Yesterday
High -- | Low -- °F
Precip. -- in
7:52 AM 6:27 PM
Waxing Gibbous, 64% visible
Pressure 29.72 in
Visibility 10.0 miles
Clouds Few 5000 ft
Windchill 42 °F
Dew Point 22 °F
Humidity 40%
Rainfall 0.00 in
Snow Depth Not available.
UV 0 out of 12
Pollen .90 out of 12
Air Quality Not available.
Flu Activity Not available.
METAR KBCE 010753Z AUTO 15010KT 10SM FEW050 08/M03 A3000 RMK AO2 SLP062 T00831028 TSNO

More Conditions Fewer Conditions

Pressure 29.72 in
Visibility 10.0 miles
Clouds Few 5000 ft
Windchill 42 °F
Dew Point 22 °F
Humidity 40%
Rainfall 0.00 in
Snow Depth Not available.
UV 0 out of 12
Pollen .90 out of 12
Air Quality Not available.
Flu Activity Not available.
METAR KBCE 010753Z AUTO 15010KT 10SM FEW050 08/M03 A3000 RMK AO2 SLP062 T00831028 TSNO

More Conditions Fewer Conditions

10-Day Weather Forecast

Almanac

Astronomy

Nov. 01, 2014 Rise Set
Actual Time
Civil Twilight
Nautical Twilight
Astronomical Twilight
Moon
Length of Visible Light
Length of Day
Tomorrow will be .
, % of the Moon is Illuminated

Today's Extremes

State Highs State Lows

Community

WunderPhotos

Upload Photos

1,766,866 photos uploaded!

WunderBlogs® & News

Nearby

Air Quality

  Air Quality AQ Index Pollutant
Not available.

Snow Depth

Station Depth Elevation

Earthquake Activity

City Distance Mag. Time & Date
Minimum magnitude displayed is 2.5.

Coastal Water Temperatures

Place Temperature

Nearby Weather Stations